Time;durP1;ratioP1;P1;durP2;ratioP2;P2;SDS_P1;SDS_P2;PMS_P1;PMS_P2;Temp;Humidity;BMP_temperature;BMP_pressure;BME280_temperature;BME280_humidity;BME280_pressure;Samples;Min_cycle;Max_cycle;Signal;HPM_P1;HPM_P2
2023/06/21 00:00:16;;;;;;;6.65;4.07;;;17.60;99.90;;;;;;5071606;28;20028;-82
2023/06/21 00:02:45;;;;;;;10.48;4.35;;;17.70;99.90;;;;;;5087673;28;20035;-82
2023/06/21 00:05:11;;;;;;;11.80;5.00;;;17.70;99.90;;;;;;5089020;28;20035;-82
2023/06/21 00:07:40;;;;;;;9.68;4.55;;;17.80;99.90;;;;;;5089148;28;20040;-83
2023/06/21 00:10:08;;;;;;;13.57;4.40;;;17.80;99.90;;;;;;5076218;28;20117;-83
2023/06/21 00:12:35;;;;;;;9.93;4.80;;;17.70;99.90;;;;;;5069570;28;20033;-82
2023/06/21 00:15:02;;;;;;;14.85;5.07;;;17.70;99.90;;;;;;5069853;28;20025;-84
2023/06/21 00:17:27;;;;;;;19.30;4.95;;;17.60;99.90;;;;;;5068820;28;20028;-82
2023/06/21 00:19:54;;;;;;;9.40;3.83;;;17.60;99.90;;;;;;5068334;28;20396;-83
2023/06/21 00:22:23;;;;;;;15.65;4.18;;;17.70;99.90;;;;;;5068575;28;20035;-80
2023/06/21 00:24:49;;;;;;;6.65;4.13;;;17.70;99.90;;;;;;5069595;28;20093;-81
2023/06/21 00:27:19;;;;;;;5.22;4.07;;;17.70;99.90;;;;;;5067939;28;20020;-80
2023/06/21 00:29:44;;;;;;;5.22;4.30;;;17.70;99.90;;;;;;5075664;28;20027;-81
2023/06/21 00:32:11;;;;;;;16.60;6.32;;;17.60;99.90;;;;;;5089493;28;20024;-81
2023/06/21 00:34:36;;;;;;;9.65;4.32;;;17.50;99.90;;;;;;5087910;28;20052;-81
2023/06/21 00:37:02;;;;;;;7.40;5.00;;;17.50;99.90;;;;;;5089627;28;20412;-81
2023/06/21 00:39:29;;;;;;;11.80;5.53;;;17.50;99.90;;;;;;5081416;28;20548;-81
2023/06/21 00:41:55;;;;;;;7.28;5.18;;;17.40;99.90;;;;;;5085544;28;20027;-80
2023/06/21 00:44:21;;;;;;;6.18;4.53;;;17.50;99.90;;;;;;5088435;28;20491;-82
2023/06/21 00:46:49;;;;;;;9.40;4.95;;;17.60;99.90;;;;;;5088171;28;20034;-82
2023/06/21 00:49:14;;;;;;;13.70;5.75;;;17.60;99.90;;;;;;5089185;28;20020;-82
2023/06/21 00:51:41;;;;;;;4.88;4.00;;;17.60;99.90;;;;;;5071588;28;20033;-81
2023/06/21 00:54:07;;;;;;;9.00;4.85;;;17.70;99.90;;;;;;5067239;28;20029;-80
2023/06/21 00:56:35;;;;;;;5.78;4.68;;;17.70;99.90;;;;;;5067432;28;20056;-82
2023/06/21 00:59:04;;;;;;;7.03;4.75;;;17.70;99.90;;;;;;5067851;28;20404;-82
2023/06/21 01:01:30;;;;;;;5.63;4.30;;;17.80;99.90;;;;;;5071613;28;20382;-84
2023/06/21 01:03:57;;;;;;;12.40;4.63;;;17.80;99.90;;;;;;5071012;28;20108;-86
2023/06/21 01:06:31;;;;;;;10.15;4.78;;;17.90;99.90;;;;;;5070436;28;20020;-83
2023/06/21 01:09:09;;;;;;;5.70;4.40;;;17.90;99.90;;;;;;5073057;28;20062;-81
2023/06/21 01:11:53;;;;;;;4.25;3.63;;;18.00;99.90;;;;;;5089185;28;20476;-82
2023/06/21 01:14:27;;;;;;;12.80;4.88;;;18.00;99.90;;;;;;5088874;28;20043;-81
2023/06/21 01:16:55;;;;;;;7.22;4.03;;;18.00;99.90;;;;;;5089495;28;20028;-81
2023/06/21 01:19:52;;;;;;;5.43;3.97;;;18.10;99.90;;;;;;5092811;28;20103;-81
2023/06/21 01:22:21;;;;;;;7.40;4.63;;;18.10;99.90;;;;;;5091993;28;20032;-81
2023/06/21 01:25:06;;;;;;;9.23;4.18;;;18.10;99.90;;;;;;5089515;28;20460;-82
2023/06/21 01:27:40;;;;;;;12.43;5.22;;;18.10;99.90;;;;;;5088289;28;20032;-81
2023/06/21 01:30:09;;;;;;;19.55;4.72;;;18.10;99.90;;;;;;5088564;28;20029;-83
2023/06/21 01:32:37;;;;;;;10.77;4.75;;;18.20;99.90;;;;;;5072254;28;20112;-83
2023/06/21 01:35:04;;;;;;;11.93;4.50;;;18.30;99.90;;;;;;5071531;28;20562;-82
2023/06/21 01:37:30;;;;;;;6.50;4.22;;;18.30;99.90;;;;;;5071593;28;20068;-82
2023/06/21 01:39:56;;;;;;;15.23;4.53;;;18.40;99.90;;;;;;5072740;28;20056;-83
2023/06/21 01:42:21;;;;;;;9.65;4.40;;;18.50;99.90;;;;;;5070904;28;20032;-82
2023/06/21 01:44:48;;;;;;;12.75;5.72;;;18.50;99.90;;;;;;5071929;28;20032;-82
2023/06/21 01:47:14;;;;;;;7.97;5.43;;;18.50;99.90;;;;;;5071391;28;20032;-81
2023/06/21 01:49:40;;;;;;;8.65;4.97;;;18.40;99.90;;;;;;5071900;28;20025;-81
2023/06/21 01:52:07;;;;;;;9.70;5.28;;;18.40;99.90;;;;;;5089998;28;20028;-83
2023/06/21 01:54:34;;;;;;;6.50;4.63;;;19.60;99.90;;;;;;5090608;28;20016;-82
2023/06/21 01:57:01;;;;;;;7.40;4.25;;;18.80;99.90;;;;;;5072514;28;20071;-82
2023/06/21 01:59:31;;;;;;;11.07;4.35;;;19.00;99.90;;;;;;5055002;28;20431;-81
2023/06/21 02:02:03;;;;;;;4.30;3.45;;;19.20;99.90;;;;;;5056277;28;20470;-82
2023/06/21 02:04:31;;;;;;;4.22;3.30;;;19.40;99.90;;;;;;5034292;28;20386;-81
2023/06/21 02:06:57;;;;;;;10.57;3.80;;;19.70;99.90;;;;;;5034528;28;20021;-81
2023/06/21 02:09:24;;;;;;;9.88;3.47;;;19.90;99.90;;;;;;5054169;28;20029;-82
2023/06/21 02:11:52;;;;;;;4.15;3.28;;;20.10;99.90;;;;;;5036562;28;20033;-81
2023/06/21 02:14:20;;;;;;;5.30;3.15;;;20.20;99.90;;;;;;5036866;28;20110;-81
2023/06/21 02:16:46;;;;;;;5.30;3.05;;;20.20;99.90;;;;;;5053190;28;20102;-81
2023/06/21 02:19:11;;;;;;;5.80;3.25;;;20.20;99.90;;;;;;5052567;28;20073;-82
2023/06/21 02:21:37;;;;;;;4.22;3.45;;;20.20;99.90;;;;;;5065773;28;20035;-81
2023/06/21 02:24:04;;;;;;;6.53;3.33;;;20.30;99.90;;;;;;5053871;28;20389;-81
2023/06/21 02:26:29;;;;;;;3.20;2.90;;;20.20;99.90;;;;;;5054151;28;20166;-82
2023/06/21 02:28:55;;;;;;;6.13;3.45;;;20.30;99.90;;;;;;5053806;28;20115;-81
2023/06/21 02:31:21;;;;;;;4.65;2.65;;;20.30;99.90;;;;;;5043273;28;20084;-81
2023/06/21 02:33:48;;;;;;;4.00;2.92;;;20.30;99.90;;;;;;5033879;28;20025;-82
2023/06/21 02:36:14;;;;;;;4.47;2.75;;;20.30;99.90;;;;;;5033472;28;20095;-82
2023/06/21 02:38:40;;;;;;;4.82;2.92;;;20.30;99.90;;;;;;5033606;28;20059;-82
2023/06/21 02:41:05;;;;;;;4.35;2.85;;;20.20;99.90;;;;;;5033117;28;20029;-82
2023/06/21 02:43:31;;;;;;;3.90;2.47;;;20.20;99.90;;;;;;5050436;28;20041;-83
2023/06/21 02:45:57;;;;;;;2.90;2.63;;;20.20;99.90;;;;;;5050164;28;20025;-83
2023/06/21 02:48:22;;;;;;;5.95;3.05;;;20.20;99.90;;;;;;5032000;28;20048;-84
2023/06/21 02:50:48;;;;;;;4.85;2.42;;;20.10;99.90;;;;;;5054239;28;20106;-83
2023/06/21 02:53:14;;;;;;;5.15;3.17;;;20.10;99.90;;;;;;5052125;28;20046;-82
2023/06/21 02:55:39;;;;;;;8.20;3.08;;;20.10;99.90;;;;;;5069961;28;20059;-83
2023/06/21 02:58:05;;;;;;;4.63;3.05;;;20.10;99.90;;;;;;5088901;28;20035;-83
2023/06/21 03:00:31;;;;;;;7.13;3.13;;;20.10;99.90;;;;;;5090412;28;20016;-84
2023/06/21 03:03:01;;;;;;;4.25;2.80;;;20.00;99.90;;;;;;5090581;28;20036;-84
2023/06/21 03:05:30;;;;;;;11.57;2.97;;;20.00;99.90;;;;;;5090466;28;20446;-84
2023/06/21 03:07:57;;;;;;;3.90;2.58;;;20.00;99.90;;;;;;5090094;28;20028;-83
2023/06/21 03:10:23;;;;;;;3.95;2.40;;;20.00;99.90;;;;;;5081299;28;20036;-83
2023/06/21 03:12:49;;;;;;;5.97;2.92;;;20.00;99.90;;;;;;5069618;28;20105;-83
2023/06/21 03:15:14;;;;;;;4.45;2.92;;;20.00;99.90;;;;;;5069844;28;20765;-83
2023/06/21 03:17:40;;;;;;;5.53;2.88;;;20.00;99.90;;;;;;5071302;28;20039;-84
2023/06/21 03:20:11;;;;;;;4.68;2.55;;;20.00;99.90;;;;;;5070960;28;20070;-83
2023/06/21 03:22:37;;;;;;;4.57;2.75;;;20.00;99.90;;;;;;5089992;28;20043;-83
2023/06/21 03:25:04;;;;;;;5.05;2.78;;;20.00;99.90;;;;;;5091355;28;20468;-83
2023/06/21 03:27:29;;;;;;;4.00;2.50;;;20.00;99.90;;;;;;5089583;28;20430;-83
2023/06/21 03:29:55;;;;;;;3.08;2.47;;;20.00;99.90;;;;;;5084998;28;20463;-83
2023/06/21 03:32:20;;;;;;;4.18;2.20;;;19.90;99.90;;;;;;5069511;28;20032;-82
2023/06/21 03:34:46;;;;;;;2.47;2.13;;;19.90;99.90;;;;;;5069640;28;20024;-84
2023/06/21 03:37:15;;;;;;;3.42;2.30;;;19.80;99.90;;;;;;5073868;28;20388;-83
2023/06/21 03:39:40;;;;;;;5.60;2.40;;;19.70;99.90;;;;;;5087757;28;20059;-82
2023/06/21 03:42:06;;;;;;;3.30;2.45;;;19.60;99.90;;;;;;5068659;28;20029;-82
2023/06/21 03:44:32;;;;;;;3.60;2.60;;;19.60;99.90;;;;;;5078383;28;20368;-82
2023/06/21 03:46:58;;;;;;;4.68;2.53;;;19.60;99.90;;;;;;5089343;28;20024;-82
2023/06/21 03:49:24;;;;;;;2.70;2.50;;;19.40;99.90;;;;;;5089532;28;20088;-81
2023/06/21 03:51:50;;;;;;;6.13;2.25;;;19.30;99.90;;;;;;5090395;28;20111;-82
2023/06/21 03:54:15;;;;;;;3.65;2.70;;;19.20;99.90;;;;;;5089185;28;20034;-82
2023/06/21 03:56:41;;;;;;;2.72;2.25;;;19.20;99.90;;;;;;5070420;28;20059;-81
2023/06/21 03:59:07;;;;;;;3.42;2.85;;;19.20;99.90;;;;;;5070097;28;20036;-82
2023/06/21 04:01:33;;;;;;;5.03;2.65;;;19.20;99.90;;;;;;5035189;28;20189;-82
2023/06/21 04:03:58;;;;;;;3.13;2.42;;;19.20;99.90;;;;;;5032239;28;20025;-82
2023/06/21 04:06:25;;;;;;;6.65;2.72;;;19.20;99.90;;;;;;5032651;28;20036;-83
2023/06/21 04:08:51;;;;;;;3.00;2.75;;;19.10;99.90;;;;;;5032248;28;20025;-82
2023/06/21 04:11:17;;;;;;;4.22;2.10;;;19.10;99.90;;;;;;5031952;28;20025;-83
2023/06/21 04:13:43;;;;;;;3.97;2.65;;;19.10;99.90;;;;;;5031773;28;20029;-84
2023/06/21 04:16:09;;;;;;;3.25;2.40;;;19.10;99.90;;;;;;5031631;28;20033;-82
2023/06/21 04:18:35;;;;;;;5.30;2.55;;;19.10;99.90;;;;;;5032023;28;20021;-84
2023/06/21 04:21:00;;;;;;;4.82;2.60;;;19.10;99.90;;;;;;5031922;28;20504;-82
2023/06/21 04:23:26;;;;;;;3.50;2.30;;;;;;;;;;5049838;28;20033;-82
2023/06/21 04:25:52;;;;;;;6.10;2.33;;;19.20;99.90;;;;;;5032077;28;20067;-83
2023/06/21 04:28:25;;;;;;;6.20;2.45;;;19.20;99.90;;;;;;5031345;28;20323;-83
2023/06/21 04:30:58;;;;;;;4.22;2.40;;;19.20;99.90;;;;;;5032162;28;20021;-83
2023/06/21 04:33:24;;;;;;;2.67;2.47;;;19.10;99.90;;;;;;5049898;28;20043;-82
2023/06/21 04:35:50;;;;;;;4.40;2.75;;;19.00;99.90;;;;;;5031420;28;20138;-82
2023/06/21 04:38:15;;;;;;;4.32;2.92;;;19.00;99.90;;;;;;5031423;28;20510;-82
2023/06/21 04:40:42;;;;;;;12.07;2.97;;;19.20;99.90;;;;;;5031184;28;20025;-82
2023/06/21 04:43:07;;;;;;;4.68;3.05;;;19.10;99.90;;;;;;5031349;28;20115;-82
2023/06/21 04:45:33;;;;;;;6.43;3.33;;;19.20;99.90;;;;;;5032027;28;20112;-83
2023/06/21 04:47:59;;;;;;;6.03;2.83;;;19.30;99.90;;;;;;5031990;28;20678;-83
2023/06/21 04:50:25;;;;;;;2.92;2.20;;;19.20;99.90;;;;;;5031268;28;20075;-82
2023/06/21 04:52:57;;;;;;;5.07;2.78;;;19.20;99.90;;;;;;5031148;28;20025;-81
2023/06/21 04:55:23;;;;;;;4.50;2.22;;;19.20;99.90;;;;;;5047200;28;20048;-83
2023/06/21 04:57:50;;;;;;;3.33;2.65;;;19.10;99.90;;;;;;5084814;28;20074;-81
2023/06/21 05:00:19;;;;;;;6.30;2.53;;;19.20;99.90;;;;;;5076023;28;20031;-81
2023/06/21 05:02:49;;;;;;;2.80;2.35;;;19.20;99.90;;;;;;5078555;28;20049;-84
2023/06/21 05:05:15;;;;;;;3.90;2.50;;;19.40;99.90;;;;;;5077318;28;20032;-81
2023/06/21 05:07:40;;;;;;;3.45;2.47;;;19.80;99.90;;;;;;5074639;28;20024;-82
2023/06/21 05:10:08;;;;;;;3.25;2.65;;;20.00;99.90;;;;;;5067627;28;20054;-82
2023/06/21 05:12:34;;;;;;;2.15;1.90;;;20.10;99.90;;;;;;5075944;28;20031;-82
2023/06/21 05:15:00;;;;;;;6.10;2.50;;;20.20;99.90;;;;;;5078680;28;20028;-82
2023/06/21 05:17:25;;;;;;;3.50;2.47;;;20.20;99.90;;;;;;5080653;28;20097;-83
2023/06/21 05:19:51;;;;;;;8.60;3.08;;;20.30;99.90;;;;;;5079145;28;20017;-84
2023/06/21 05:22:17;;;;;;;3.63;2.83;;;20.40;99.90;;;;;;5076129;28;20032;-82
2023/06/21 05:24:42;;;;;;;3.60;2.00;;;20.50;99.90;;;;;;5078073;28;20066;-82
2023/06/21 05:27:09;;;;;;;3.03;2.60;;;20.50;99.90;;;;;;5078997;28;20024;-82
2023/06/21 05:29:35;;;;;;;5.32;2.72;;;20.50;99.90;;;;;;5080555;28;20040;-80
2023/06/21 05:32:01;;;;;;;4.55;2.47;;;20.50;99.90;;;;;;5084497;28;20052;-81
2023/06/21 05:34:28;;;;;;;2.50;2.08;;;20.50;99.90;;;;;;5078237;28;20037;-82
2023/06/21 05:36:54;;;;;;;3.38;2.20;;;20.60;99.90;;;;;;5081392;28;20102;-82
2023/06/21 05:39:20;;;;;;;2.78;2.28;;;20.90;99.90;;;;;;5086169;28;20392;-82
2023/06/21 05:41:45;;;;;;;2.53;2.35;;;21.00;99.90;;;;;;5087510;28;20024;-82
2023/06/21 05:44:11;;;;;;;3.88;2.97;;;21.20;99.90;;;;;;5087816;28;20036;-82
2023/06/21 05:46:36;;;;;;;3.17;2.15;;;21.50;99.90;;;;;;5087254;28;20028;-81
2023/06/21 05:49:02;;;;;;;5.78;2.65;;;21.70;99.90;;;;;;5088820;28;20216;-79
2023/06/21 05:51:28;;;;;;;6.68;2.65;;;21.90;99.90;;;;;;5088217;28;20039;-82
2023/06/21 05:53:56;;;;;;;3.30;3.00;;;22.10;99.90;;;;;;5081177;28;20414;-82
2023/06/21 05:56:24;;;;;;;8.10;2.90;;;22.30;99.90;;;;;;5076168;28;20124;-81
2023/06/21 05:58:50;;;;;;;7.77;3.77;;;22.50;99.90;;;;;;5079297;28;20464;-78
2023/06/21 06:01:16;;;;;;;14.75;4.05;;;22.90;99.90;;;;;;5084068;28;20294;-77
2023/06/21 06:03:41;;;;;;;8.35;3.00;;;22.30;99.90;;;;;;5076994;28;20489;-78
2023/06/21 06:06:08;;;;;;;5.63;3.10;;;;;;;;;;5071543;28;20036;-78
2023/06/21 06:08:34;;;;;;;4.97;3.28;;;21.90;99.90;;;;;;5077383;28;20027;-80
2023/06/21 06:11:00;;;;;;;6.82;3.55;;;;;;;;;;5084169;28;20027;-78
2023/06/21 06:13:28;;;;;;;5.13;3.05;;;21.20;99.90;;;;;;5092692;28;20020;-79
2023/06/21 06:15:54;;;;;;;10.63;4.00;;;;;;;;;;5089413;28;20038;-82
2023/06/21 06:18:20;;;;;;;3.90;3.20;;;;;;;;;;5093941;28;20318;-79
2023/06/21 06:20:46;;;;;;;6.78;3.80;;;;;;;;;;5106811;28;20052;-79
2023/06/21 06:23:12;;;;;;;3.00;2.67;;;19.00;99.90;;;;;;5099738;28;20032;-79
2023/06/21 06:25:40;;;;;;;5.15;4.18;;;;;;;;;;5094484;28;20046;-78
2023/06/21 06:28:06;;;;;;;6.90;3.05;;;18.70;99.90;;;;;;5091970;28;20093;-78
2023/06/21 06:30:32;;;;;;;4.88;3.40;;;18.50;99.90;;;;;;5092383;28;20127;-78
2023/06/21 06:32:58;;;;;;;7.40;4.78;;;18.40;99.90;;;;;;5094649;28;20059;-78
2023/06/21 06:35:24;;;;;;;8.43;3.90;;;18.40;99.90;;;;;;5093219;28;20091;-78
2023/06/21 06:37:50;;;;;;;9.23;4.72;;;18.10;99.90;;;;;;5094092;28;20092;-80
2023/06/21 06:40:16;;;;;;;8.82;3.80;;;21.30;99.90;;;;;;5095833;28;20100;-78
2023/06/21 06:42:41;;;;;;;8.68;3.78;;;17.40;99.90;;;;;;5093928;28;20181;-79
2023/06/21 06:45:08;;;;;;;9.85;4.50;;;17.50;99.90;;;;;;5096232;28;20274;-79
2023/06/21 06:47:33;;;;;;;9.18;3.75;;;17.30;99.90;;;;;;5096739;28;20027;-80
2023/06/21 06:50:02;;;;;;;4.78;2.67;;;;;;;;;;5095300;28;20472;-78
2023/06/21 06:52:28;;;;;;;4.35;2.75;;;;;;;;;;5094244;28;20475;-78
2023/06/21 06:54:54;;;;;;;4.20;2.70;;;17.30;99.90;;;;;;5070614;28;20140;-78
2023/06/21 06:57:22;;;;;;;3.35;2.15;;;17.40;99.90;;;;;;5053658;28;20152;-78
2023/06/21 06:59:49;;;;;;;3.55;1.55;;;17.60;99.90;;;;;;5032047;28;20028;-79
2023/06/21 07:02:14;;;;;;;2.13;1.90;;;17.60;99.90;;;;;;5033412;28;20173;-79
2023/06/21 07:04:40;;;;;;;2.55;2.10;;;17.60;99.90;;;;;;5029132;28;20158;-79
2023/06/21 07:07:06;;;;;;;4.32;1.77;;;17.60;99.90;;;;;;5031561;28;20504;-78
2023/06/21 07:09:33;;;;;;;4.20;1.50;;;17.70;99.90;;;;;;5063703;28;20052;-79
2023/06/21 07:12:01;;;;;;;3.38;1.48;;;17.60;99.90;;;;;;5053879;28;20074;-77
2023/06/21 07:14:27;;;;;;;8.38;2.00;;;17.60;99.90;;;;;;5034766;28;20436;-78
2023/06/21 07:16:52;;;;;;;1.95;1.65;;;17.70;99.90;;;;;;5048371;28;20032;-78
2023/06/21 07:19:18;;;;;;;5.20;1.70;;;17.80;99.90;;;;;;5069354;28;20086;-81
2023/06/21 07:21:44;;;;;;;3.70;2.50;;;17.80;99.90;;;;;;5070191;28;20028;-78
2023/06/21 07:24:10;;;;;;;3.85;2.47;;;17.90;99.90;;;;;;5058702;28;20028;-78
2023/06/21 07:26:36;;;;;;;2.25;2.05;;;17.90;99.90;;;;;;5050290;28;20028;-82
2023/06/21 07:29:02;;;;;;;3.00;1.92;;;18.00;99.90;;;;;;5062203;28;20025;-81
2023/06/21 07:31:27;;;;;;;1.55;1.45;;;18.00;99.90;;;;;;5032043;28;20021;-79
2023/06/21 07:33:57;;;;;;;3.05;2.00;;;18.10;99.90;;;;;;5049533;28;20060;-80
2023/06/21 07:36:23;;;;;;;2.30;1.98;;;;;;;;;;5035371;28;20083;-78
2023/06/21 07:38:48;;;;;;;2.65;2.45;;;18.50;99.90;;;;;;5046197;28;20029;-79
2023/06/21 07:41:15;;;;;;;3.28;1.83;;;18.70;99.90;;;;;;5052688;28;20021;-79
2023/06/21 07:43:40;;;;;;;2.63;2.42;;;19.00;99.90;;;;;;5036807;28;20056;-79
2023/06/21 07:46:06;;;;;;;1.95;1.85;;;19.40;99.90;;;;;;5055473;28;20063;-80
2023/06/21 07:48:33;;;;;;;2.92;2.28;;;19.70;99.90;;;;;;5031162;28;20032;-78
2023/06/21 07:51:00;;;;;;;2.65;2.15;;;20.20;99.90;;;;;;5034461;28;20206;-80
2023/06/21 07:53:26;;;;;;;2.78;2.28;;;20.70;99.90;;;;;;5056049;28;20036;-81
2023/06/21 07:55:51;;;;;;;5.68;2.35;;;21.20;99.90;;;;;;5055976;28;20049;-78
2023/06/21 07:58:20;;;;;;;5.00;2.65;;;21.60;99.90;;;;;;5046525;28;20286;-79
2023/06/21 08:00:46;;;;;;;3.17;2.38;;;22.30;99.90;;;;;;5058553;28;20606;-79
2023/06/21 08:03:11;;;;;;;3.42;2.10;;;23.10;99.90;;;;;;5041138;28;20116;-78
2023/06/21 08:05:37;;;;;;;3.10;2.00;;;23.90;99.90;;;;;;5058001;28;20029;-78
2023/06/21 08:08:03;;;;;;;2.80;2.45;;;24.70;99.90;;;;;;5067374;28;20084;-81
2023/06/21 08:10:31;;;;;;;3.10;1.92;;;24.80;99.90;;;;;;5069891;28;20238;-79
2023/06/21 08:12:57;;;;;;;4.38;1.90;;;25.40;99.90;;;;;;5068549;28;20017;-78
2023/06/21 08:15:23;;;;;;;2.15;1.95;;;26.10;99.90;;;;;;5067766;28;20051;-79
2023/06/21 08:17:49;;;;;;;4.00;1.88;;;26.30;99.90;;;;;;5054826;28;20029;-79
2023/06/21 08:20:15;;;;;;;3.83;2.00;;;26.50;99.90;;;;;;5044161;28;20023;-79
2023/06/21 08:22:40;;;;;;;2.22;2.00;;;26.60;99.90;;;;;;5042944;28;20613;-77
2023/06/21 08:25:06;;;;;;;4.25;2.00;;;26.50;99.90;;;;;;5048049;28;20116;-76
2023/06/21 08:27:32;;;;;;;2.75;2.17;;;26.60;99.90;;;;;;5052644;28;20029;-77
2023/06/21 08:29:57;;;;;;;1.55;1.45;;;26.70;99.90;;;;;;5048968;28;20056;-79
2023/06/21 08:32:24;;;;;;;3.35;2.25;;;27.10;99.90;;;;;;5048436;28;20102;-76
2023/06/21 08:34:52;;;;;;;6.38;2.67;;;27.30;99.90;;;;;;5053916;28;20480;-76
2023/06/21 08:37:22;;;;;;;1.80;1.70;;;27.30;99.90;;;;;;5038324;28;20099;-74
2023/06/21 08:39:52;;;;;;;3.22;2.13;;;27.60;99.90;;;;;;5048003;28;20130;-79
2023/06/21 08:42:19;;;;;;;3.30;1.90;;;27.50;99.90;;;;;;5048447;28;20107;-77
2023/06/21 08:44:45;;;;;;;1.88;1.35;;;27.50;99.90;;;;;;5028634;28;20020;-79
2023/06/21 08:47:13;;;;;;;1.92;1.58;;;27.50;99.90;;;;;;5052433;28;20033;-76
2023/06/21 08:49:41;;;;;;;2.83;1.60;;;27.40;99.90;;;;;;5065376;28;20044;-79
2023/06/21 08:52:11;;;;;;;5.57;2.13;;;26.90;99.90;;;;;;5055361;28;20072;-78
2023/06/21 08:54:40;;;;;;;1.48;1.25;;;26.60;99.90;;;;;;5027206;28;20022;-80
2023/06/21 08:57:24;;;;;;;1.50;1.40;;;26.60;99.90;;;;;;5060615;28;20385;-78
2023/06/21 09:00:00;;;;;;;2.60;1.88;;;26.70;99.90;;;;;;5065587;28;20040;-75
2023/06/21 09:02:38;;;;;;;2.92;1.83;;;27.40;99.90;;;;;;5066850;28;20112;-75
2023/06/21 09:05:11;;;;;;;3.88;2.20;;;26.60;99.90;;;;;;5071113;28;20024;-75
2023/06/21 09:07:38;;;;;;;4.65;1.92;;;26.90;99.90;;;;;;5074471;28;20043;-75
2023/06/21 09:10:04;;;;;;;4.03;1.42;;;27.00;99.90;;;;;;5067850;28;20380;-76
2023/06/21 09:12:31;;;;;;;2.50;1.98;;;27.10;99.90;;;;;;5065741;28;20127;-76
2023/06/21 09:14:57;;;;;;;2.60;1.90;;;27.20;99.90;;;;;;5067769;28;20090;-75
2023/06/21 09:17:25;;;;;;;2.55;1.92;;;27.20;99.90;;;;;;5066974;28;20040;-76
2023/06/21 09:19:52;;;;;;;1.58;1.38;;;27.40;99.90;;;;;;5085431;28;20475;-76
2023/06/21 09:22:18;;;;;;;1.65;1.50;;;;;;;;;;5077204;28;20032;-75
2023/06/21 09:24:44;;;;;;;7.03;1.90;;;26.90;99.90;;;;;;5065071;28;20025;-76
2023/06/21 09:27:10;;;;;;;3.80;1.63;;;26.70;99.90;;;;;;5064991;28;20047;-76
2023/06/21 09:29:36;;;;;;;2.90;1.27;;;26.50;99.90;;;;;;5066931;28;20032;-75
2023/06/21 09:32:02;;;;;;;2.63;1.50;;;26.70;99.90;;;;;;5065567;28;20032;-76
2023/06/21 09:34:28;;;;;;;2.53;1.40;;;27.20;99.90;;;;;;5064953;28;20496;-76
2023/06/21 09:36:54;;;;;;;3.30;1.58;;;27.20;99.90;;;;;;5066974;28;20044;-76
2023/06/21 09:39:24;;;;;;;1.80;1.25;;;27.60;99.90;;;;;;5067699;28;20098;-76
2023/06/21 09:41:50;;;;;;;3.92;1.90;;;27.90;99.90;;;;;;5066086;28;20524;-76
2023/06/21 09:44:20;;;;;;;1.77;1.42;;;29.10;99.90;;;;;;5065445;28;20267;-76
2023/06/21 09:46:57;;;;;;;2.15;1.17;;;28.80;96.00;;;;;;5065775;28;20052;-76
2023/06/21 09:49:26;;;;;;;3.42;1.45;;;29.00;95.80;;;;;;5069131;28;20052;-78
2023/06/21 09:51:51;;;;;;;10.18;1.45;;;28.80;94.40;;;;;;5071228;28;20182;-79
2023/06/21 09:54:17;;;;;;;4.13;1.73;;;29.20;97.70;;;;;;5072314;28;20526;-79
2023/06/21 09:56:43;;;;;;;1.52;1.33;;;29.40;97.80;;;;;;5069830;28;20055;-81
2023/06/21 09:59:16;;;;;;;4.72;1.50;;;29.30;92.80;;;;;;5070623;28;20212;-79
2023/06/21 10:01:45;;;;;;;4.63;1.75;;;29.00;93.00;;;;;;5071823;28;20025;-79
2023/06/21 10:04:15;;;;;;;1.92;1.73;;;28.90;92.20;;;;;;5070425;28;20711;-79
2023/06/21 10:06:51;;;;;;;2.38;1.70;;;29.20;93.20;;;;;;5070882;28;20024;-78
2023/06/21 10:09:18;;;;;;;2.03;1.65;;;29.40;91.10;;;;;;5075946;28;20528;-80
2023/06/21 10:11:44;;;;;;;3.72;1.38;;;29.80;91.80;;;;;;5072063;28;20683;-77
2023/06/21 10:14:23;;;;;;;3.35;1.33;;;30.20;90.40;;;;;;5069095;28;20017;-78
2023/06/21 10:16:51;;;;;;;3.70;1.60;;;29.80;85.60;;;;;;5067570;28;20039;-78
2023/06/21 10:19:20;;;;;;;2.35;1.33;;;29.40;85.20;;;;;;5068632;28;20066;-78
2023/06/21 10:21:49;;;;;;;4.85;1.55;;;29.40;86.10;;;;;;5072170;28;20039;-79
2023/06/21 10:24:16;;;;;;;1.60;1.30;;;29.50;85.10;;;;;;5081929;28;20016;-78
2023/06/21 10:26:43;;;;;;;2.38;1.80;;;29.30;90.20;;;;;;5081498;28;20020;-78
2023/06/21 10:29:10;;;;;;;3.30;1.70;;;28.70;92.10;;;;;;5078639;28;20032;-77
2023/06/21 10:31:39;;;;;;;4.53;1.45;;;28.90;93.30;;;;;;5082538;28;20455;-78
2023/06/21 10:34:07;;;;;;;;;;;29.00;87.40;;;;;;5080677;28;20098;-77
2023/06/21 10:36:35;;;;;;;1.85;1.40;;;28.80;89.20;;;;;;5080231;28;19909;-79
2023/06/21 10:39:11;;;;;;;4.45;1.65;;;29.10;89.70;;;;;;5079815;28;20031;-79
2023/06/21 10:41:39;;;;;;;2.22;1.63;;;29.10;89.80;;;;;;5084695;28;20031;-79
2023/06/21 10:44:06;;;;;;;4.93;2.13;;;;;;;;;;5088604;28;20023;-80
2023/06/21 10:46:33;;;;;;;3.50;1.40;;;29.00;91.20;;;;;;5092736;28;20016;-78
2023/06/21 10:49:01;;;;;;;2.03;1.48;;;29.30;90.40;;;;;;5089734;28;20027;-79
2023/06/21 10:51:27;;;;;;;6.82;1.60;;;;;;;;;;5083726;28;20525;-78
2023/06/21 10:53:53;;;;;;;2.35;1.45;;;29.50;82.20;;;;;;5086899;28;20016;-78
2023/06/21 10:56:20;;;;;;;2.63;1.60;;;29.40;80.10;;;;;;5078535;28;20056;-78
2023/06/21 10:58:46;;;;;;;3.47;1.50;;;29.10;81.80;;;;;;5070102;28;20033;-79
2023/06/21 11:01:13;;;;;;;3.00;1.23;;;29.40;79.60;;;;;;5077705;28;20020;-79
2023/06/21 11:03:39;;;;;;;3.25;1.52;;;29.70;79.40;;;;;;5047418;28;20029;-74
2023/06/21 11:06:24;;;;;;;3.45;1.45;;;30.20;76.50;;;;;;5042903;28;20021;-77
2023/06/21 11:08:50;;;;;;;3.42;1.55;;;30.40;75.90;;;;;;5060645;28;20078;-76
2023/06/21 11:11:33;;;;;;;2.88;1.52;;;30.20;75.90;;;;;;5059388;28;20029;-76
2023/06/21 11:14:05;;;;;;;3.67;1.17;;;29.90;77.30;;;;;;5033163;28;20044;-76
2023/06/21 11:16:35;;;;;;;3.25;1.30;;;29.80;76.50;;;;;;5058340;28;20505;-76
2023/06/21 11:19:07;;;;;;;4.03;1.40;;;29.90;79.40;;;;;;5040762;28;20530;-76
2023/06/21 11:21:49;;;;;;;2.35;1.10;;;30.20;75.80;;;;;;5028232;28;20322;-75
2023/06/21 11:24:17;;;;;;;2.85;1.60;;;30.60;75.60;;;;;;5044051;28;20556;-75
2023/06/21 11:27:01;;;;;;;3.20;1.75;;;31.80;82.00;;;;;;5047298;28;20431;-75
2023/06/21 11:29:40;;;;;;;1.73;1.63;;;32.50;79.10;;;;;;5030123;28;20086;-76
2023/06/21 11:32:11;;;;;;;6.50;1.73;;;32.80;72.40;;;;;;5025687;28;20021;-77
2023/06/21 11:34:37;;;;;;;2.53;1.80;;;33.70;70.50;;;;;;5045808;28;20028;-75
2023/06/21 11:37:34;;;;;;;4.32;1.60;;;35.40;71.90;;;;;;5052852;28;20048;-76
2023/06/21 11:40:01;;;;;;;1.30;1.20;;;34.30;70.80;;;;;;5050802;28;20033;-75
2023/06/21 11:42:31;;;;;;;5.25;1.50;;;34.40;69.50;;;;;;5043379;28;20060;-77
2023/06/21 11:45:14;;;;;;;3.00;1.55;;;34.50;67.30;;;;;;5040076;28;20243;-77
2023/06/21 11:47:58;;;;;;;3.33;1.50;;;34.00;65.30;;;;;;5057626;28;20016;-77
2023/06/21 11:50:31;;;;;;;2.83;1.65;;;34.30;65.20;;;;;;5043795;28;20009;-79
2023/06/21 11:53:10;;;;;;;1.65;1.30;;;34.60;65.50;;;;;;5034038;28;20135;-77
2023/06/21 11:55:37;;;;;;;;;;;34.90;66.80;;;;;;5056919;28;20048;-76
2023/06/21 11:58:03;;;;;;;3.00;1.90;;;35.10;65.80;;;;;;5064965;28;20490;-78
2023/06/21 12:00:31;;;;;;;3.30;2.45;;;35.40;63.30;;;;;;5067108;28;20063;-76
2023/06/21 12:02:57;;;;;;;5.20;1.73;;;34.80;63.20;;;;;;5071523;28;20016;-77
2023/06/21 12:05:22;;;;;;;2.42;2.10;;;33.50;66.10;;;;;;5071856;28;20378;-80
2023/06/21 12:07:48;;;;;;;2.63;1.80;;;32.60;67.70;;;;;;5068025;28;20131;-80
2023/06/21 12:10:14;;;;;;;4.63;1.80;;;32.30;67.50;;;;;;5067516;28;20128;-77
2023/06/21 12:12:39;;;;;;;4.93;2.00;;;32.90;65.20;;;;;;5080762;28;20073;-77
2023/06/21 12:15:06;;;;;;;4.28;1.95;;;32.70;65.70;;;;;;5087257;28;20035;-77
2023/06/21 12:17:32;;;;;;;2.78;1.77;;;32.40;66.60;;;;;;5077770;28;20098;-77
2023/06/21 12:20:04;;;;;;;2.88;1.90;;;32.40;69.30;;;;;;5069205;28;20473;-77
2023/06/21 12:22:30;;;;;;;2.10;1.63;;;32.50;66.40;;;;;;5078838;28;20028;-75
2023/06/21 12:24:56;;;;;;;5.10;2.28;;;32.30;66.70;;;;;;5085597;28;20030;-76
2023/06/21 12:27:22;;;;;;;4.60;2.15;;;32.70;68.40;;;;;;5087059;28;20035;-76
2023/06/21 12:29:50;;;;;;;2.80;1.80;;;32.70;66.10;;;;;;5086849;28;20016;-77
2023/06/21 12:32:18;;;;;;;3.65;2.08;;;32.50;68.20;;;;;;5087554;28;20028;-75
2023/06/21 12:34:43;;;;;;;3.13;1.90;;;32.10;70.80;;;;;;5086330;28;20515;-75
2023/06/21 12:37:17;;;;;;;3.10;1.90;;;32.40;70.80;;;;;;5086491;28;20083;-76
2023/06/21 12:39:49;;;;;;;6.50;1.85;;;32.80;67.80;;;;;;5087213;28;20480;-75
2023/06/21 12:42:20;;;;;;;2.45;2.00;;;33.40;68.30;;;;;;5088744;28;20031;-75
2023/06/21 12:44:46;;;;;;;4.00;1.90;;;34.10;68.00;;;;;;5086936;28;20034;-76
2023/06/21 12:47:12;;;;;;;6.30;2.13;;;34.00;63.00;;;;;;5087120;28;20122;-76
2023/06/21 12:49:37;;;;;;;6.70;1.80;;;33.60;67.10;;;;;;5091201;28;20159;-78
2023/06/21 12:52:03;;;;;;;3.63;1.95;;;33.40;65.90;;;;;;5095874;28;20043;-76